Time;durP1;ratioP1;P1;durP2;ratioP2;P2;SDS_P1;SDS_P2;PMS_P1;PMS_P2;Temp;Humidity;BMP_temperature;BMP_pressure;BME280_temperature;BME280_humidity;BME280_pressure;Samples;Min_cycle;Max_cycle;Signal;HPM_P1;HPM_P2
2024/01/19 00:01:44;;;;;;;12.70;8.57;;;;;;;-5.79;100.00;98419.50;5040112;28;20052;-66
2024/01/19 00:04:09;;;;;;;11.50;7.87;;;;;;;-5.84;100.00;98417.25;5038851;28;20373;-66
2024/01/19 00:06:38;;;;;;;12.07;7.83;;;;;;;-5.85;100.00;98405.25;5033126;28;20099;-67
2024/01/19 00:09:04;;;;;;;15.10;8.45;;;;;;;-5.68;100.00;98416.94;5039533;28;20047;-66
2024/01/19 00:11:29;;;;;;;12.83;8.10;;;;;;;-5.66;100.00;98407.25;5037967;28;20041;-67
2024/01/19 00:13:55;;;;;;;12.47;8.60;;;;;;;-5.70;100.00;98400.66;5042380;28;20414;-66
2024/01/19 00:16:26;;;;;;;13.67;8.20;;;;;;;-5.66;100.00;98404.66;5040709;28;20524;-67
2024/01/19 00:18:52;;;;;;;14.88;8.90;;;;;;;-5.84;100.00;98372.38;5038210;28;20040;-68
2024/01/19 00:21:18;;;;;;;12.87;8.60;;;;;;;-5.72;100.00;98395.59;5044858;28;20405;-68
2024/01/19 00:23:44;;;;;;;15.30;9.07;;;;;;;-5.94;100.00;98361.94;5038795;28;20048;-67
2024/01/19 00:26:10;;;;;;;13.40;7.75;;;;;;;-5.68;100.00;98394.41;5035125;28;20059;-70
2024/01/19 00:28:36;;;;;;;12.73;8.17;;;;;;;-5.64;100.00;98413.16;5040141;28;20524;-69
2024/01/19 00:31:01;;;;;;;13.67;8.00;;;;;;;-5.89;100.00;98361.56;5042891;28;20901;-67
2024/01/19 00:33:27;;;;;;;12.77;9.00;;;;;;;-5.54;100.00;98414.09;5035829;28;20063;-66
2024/01/19 00:35:52;;;;;;;11.93;7.73;;;;;;;-5.53;100.00;98404.53;5047689;28;20047;-67
2024/01/19 00:38:18;;;;;;;12.03;7.17;;;;;;;-5.47;100.00;98410.09;5046935;28;20358;-67
2024/01/19 00:40:44;;;;;;;11.03;8.17;;;;;;;-5.50;100.00;98412.06;5035715;28;20033;-67
2024/01/19 00:43:10;;;;;;;13.55;7.60;;;;;;;-5.82;100.00;98370.50;5040681;28;20059;-71
2024/01/19 00:45:36;;;;;;;13.13;8.67;;;;;;;-5.61;100.00;98398.19;5039364;28;20127;-67
2024/01/19 00:48:01;;;;;;;12.97;7.97;;;;;;;-5.57;100.00;98396.16;5038666;28;20485;-67
2024/01/19 00:50:27;;;;;;;11.97;7.37;;;;;;;-5.41;100.00;98408.78;5042885;28;20041;-65
2024/01/19 00:52:52;;;;;;;11.80;6.87;;;;;;;-5.39;100.00;98409.50;5037530;28;20086;-68
2024/01/19 00:55:18;;;;;;;9.63;7.13;;;;;;;-5.32;100.00;98414.06;5042951;28;20076;-67
2024/01/19 00:57:44;;;;;;;9.20;6.47;;;;;;;-5.37;100.00;98402.41;5039801;28;20400;-67
2024/01/19 01:00:10;;;;;;;8.82;6.60;;;;;;;-5.22;100.00;98408.97;5038127;28;20098;-66
2024/01/19 01:02:36;;;;;;;8.70;6.53;;;;;;;-5.25;100.00;98404.03;5038277;28;20807;-67
2024/01/19 01:05:01;;;;;;;7.63;5.93;;;;;;;-5.38;100.00;98377.41;5035943;28;20493;-66
2024/01/19 01:07:29;;;;;;;8.85;5.38;;;;;;;-5.23;100.00;98406.50;5038299;28;20045;-67
2024/01/19 01:09:54;;;;;;;8.07;5.53;;;;;;;-5.21;100.00;98402.00;5033455;28;20053;-67
2024/01/19 01:12:19;;;;;;;7.87;5.77;;;;;;;-5.13;100.00;98412.63;5031677;28;20079;-67
2024/01/19 01:14:47;;;;;;;11.17;5.77;;;;;;;-5.22;100.00;98392.59;5042233;28;20048;-68
2024/01/19 01:17:13;;;;;;;10.10;5.93;;;;;;;-5.28;100.00;98393.06;5037809;28;20083;-67
2024/01/19 01:19:39;;;;;;;8.75;6.22;;;;;;;-5.36;100.00;98381.53;5043384;28;20037;-69
2024/01/19 01:22:05;;;;;;;6.77;5.17;;;;;;;-5.15;100.00;98424.91;5042960;28;20048;-68
2024/01/19 01:24:32;;;;;;;9.32;5.35;;;;;;;-5.06;100.00;98434.56;5044709;28;20159;-65
2024/01/19 01:26:57;;;;;;;8.07;5.20;;;;;;;-4.99;100.00;98443.50;5047495;28;20083;-66
2024/01/19 01:29:23;;;;;;;10.27;6.17;;;;;;;-5.01;100.00;98428.03;5039481;28;20044;-65
2024/01/19 01:31:50;;;;;;;7.17;5.87;;;;;;;-5.44;100.00;98360.56;5037617;28;20512;-68
2024/01/19 01:34:16;;;;;;;7.72;5.30;;;;;;;-4.91;100.00;98438.53;5035593;28;20041;-70
2024/01/19 01:36:42;;;;;;;7.73;5.63;;;;;;;-4.94;100.00;98443.94;5036188;28;20110;-66
2024/01/19 01:39:11;;;;;;;6.43;5.50;;;;;;;-4.93;100.00;98445.59;5037411;28;20071;-66
2024/01/19 01:41:37;;;;;;;6.95;4.40;;;;;;;-5.14;100.00;98400.59;5036845;28;20033;-71
2024/01/19 01:44:04;;;;;;;5.20;3.78;;;;;;;-5.08;100.00;98407.91;5040400;28;20420;-68
2024/01/19 01:46:30;;;;;;;6.68;4.90;;;;;;;-5.20;100.00;98391.53;5038206;28;20433;-66
2024/01/19 01:48:56;;;;;;;8.60;4.97;;;;;;;-4.79;100.00;98442.75;5041068;28;20040;-67
2024/01/19 01:51:21;;;;;;;6.50;4.80;;;;;;;-5.15;100.00;98384.22;5037004;28;20049;-67
2024/01/19 01:53:47;;;;;;;5.03;4.10;;;;;;;-4.76;100.00;98450.28;5034410;28;20037;-68
2024/01/19 01:56:13;;;;;;;8.83;4.20;;;;;;;-4.82;100.00;98432.59;5035385;28;20072;-67
2024/01/19 01:58:39;;;;;;;8.23;4.28;;;;;;;-4.73;100.00;98447.44;5039235;28;20079;-67
2024/01/19 02:01:05;;;;;;;6.53;3.83;;;;;;;-4.71;100.00;98457.69;5035117;28;20132;-67
2024/01/19 02:03:31;;;;;;;11.70;4.63;;;;;;;-4.64;100.00;98458.03;5035839;28;20064;-66
2024/01/19 02:05:57;;;;;;;6.40;4.18;;;;;;;-4.68;100.00;98455.69;5038677;28;20369;-68
2024/01/19 02:08:22;;;;;;;6.93;3.97;;;;;;;-4.65;100.00;98458.97;5033448;28;20049;-65
2024/01/19 02:10:48;;;;;;;8.13;4.17;;;;;;;-4.62;100.00;98456.16;5047238;28;20048;-67
2024/01/19 02:13:15;;;;;;;5.97;3.93;;;;;;;-4.84;100.00;98418.09;5038726;28;20065;-67
2024/01/19 02:15:41;;;;;;;6.03;3.65;;;;;;;-4.60;100.00;98451.66;5040540;28;20489;-67
2024/01/19 02:18:07;;;;;;;7.40;5.05;;;;;;;-4.72;100.00;98428.31;5036527;28;20053;-67
2024/01/19 02:20:33;;;;;;;5.47;3.83;;;;;;;-4.61;100.00;98455.22;5049174;28;20056;-65
2024/01/19 02:23:02;;;;;;;4.93;4.23;;;;;;;-5.50;100.00;98303.97;5032459;28;20496;-65
2024/01/19 02:25:28;;;;;;;6.32;4.28;;;;;;;-4.56;100.00;98455.66;5038197;28;20044;-67
2024/01/19 02:27:55;;;;;;;4.00;3.50;;;;;;;-4.57;100.00;98459.22;5043722;28;20048;-66
2024/01/19 02:30:21;;;;;;;4.03;3.58;;;;;;;-4.95;100.00;98399.94;5042415;28;20040;-68
2024/01/19 02:32:46;;;;;;;5.10;3.87;;;;;;;-4.64;100.00;98456.25;5045256;28;20122;-67
2024/01/19 02:35:12;;;;;;;4.83;3.60;;;;;;;-4.52;100.00;98473.47;5041970;28;20037;-66
2024/01/19 02:37:37;;;;;;;5.50;3.50;;;;;;;-4.53;100.00;98463.22;5046313;28;20123;-68
2024/01/19 02:40:05;;;;;;;6.07;4.73;;;;;;;-4.48;100.00;98474.88;5023919;28;20064;-68
2024/01/19 02:42:31;;;;;;;9.20;3.30;;;;;;;-4.68;100.00;98440.09;5035823;28;20409;-69
2024/01/19 02:44:59;;;;;;;6.03;3.87;;;;;;;-4.64;100.00;98439.84;5039924;28;20091;-66
2024/01/19 02:47:27;;;;;;;6.57;3.80;;;;;;;-4.56;100.00;98453.06;5033376;28;20040;-68
2024/01/19 02:49:53;;;;;;;6.50;4.03;;;;;;;-4.54;100.00;98457.19;5042756;28;20045;-67
2024/01/19 02:52:18;;;;;;;6.07;4.03;;;;;;;-4.64;100.00;98432.06;5035985;28;20068;-68
2024/01/19 02:54:44;;;;;;;4.70;3.10;;;;;;;-4.57;100.00;98452.25;5040107;28;20091;-67
2024/01/19 02:57:10;;;;;;;4.97;3.67;;;;;;;-4.84;100.00;98405.94;5041557;28;20091;-69
2024/01/19 02:59:35;;;;;;;5.63;3.60;;;;;;;-4.67;100.00;98441.75;5033356;28;20150;-67
2024/01/19 03:02:01;;;;;;;4.57;3.50;;;;;;;-4.54;100.00;98461.56;5035937;28;20371;-68
2024/01/19 03:04:27;;;;;;;4.43;3.87;;;;;;;-4.49;100.00;98468.03;5038040;28;20051;-67
2024/01/19 03:06:53;;;;;;;4.20;3.42;;;;;;;-4.56;100.00;98453.06;5034114;28;20041;-67
2024/01/19 03:09:19;;;;;;;8.32;3.17;;;;;;;-4.48;100.00;98461.88;5034138;28;20095;-67
2024/01/19 03:11:44;;;;;;;5.70;3.23;;;;;;;-4.49;100.00;98462.00;5033693;28;20049;-67
2024/01/19 03:14:10;;;;;;;4.07;3.00;;;;;;;-4.62;100.00;98443.19;5041829;28;20043;-69
2024/01/19 03:16:41;;;;;;;5.40;3.00;;;;;;;-4.64;100.00;98437.25;5036959;28;20068;-66
2024/01/19 03:19:08;;;;;;;3.17;2.80;;;;;;;-4.56;100.00;98463.47;5036632;28;20522;-69
2024/01/19 03:21:34;;;;;;;4.00;2.83;;;;;;;-4.51;100.00;98469.09;5033559;28;20095;-66
2024/01/19 03:23:59;;;;;;;5.60;3.03;;;;;;;-4.46;100.00;98479.94;5037816;28;20450;-70
2024/01/19 03:26:25;;;;;;;4.40;2.63;;;;;;;-4.45;100.00;98476.38;5046586;28;20412;-70
2024/01/19 03:28:50;;;;;;;3.60;3.17;;;;;;;-4.52;100.00;98470.03;5049784;28;20037;-66
2024/01/19 03:31:16;;;;;;;3.20;2.90;;;;;;;-4.41;100.00;98493.38;5045388;28;20060;-67
2024/01/19 03:33:41;;;;;;;6.63;2.73;;;;;;;-4.43;100.00;98472.72;5041050;28;20048;-68
2024/01/19 03:36:07;;;;;;;4.43;2.40;;;;;;;-4.46;100.00;98469.53;5045010;28;20041;-68
2024/01/19 03:38:33;;;;;;;2.70;2.40;;;;;;;-4.61;100.00;98455.22;5034897;28;20120;-66
2024/01/19 03:41:00;;;;;;;3.33;2.75;;;;;;;-4.44;100.00;98465.06;5037524;28;20091;-66
2024/01/19 03:43:26;;;;;;;4.75;2.58;;;;;;;-4.72;100.00;98430.91;5042821;28;20052;-68
2024/01/19 03:45:52;;;;;;;3.43;3.23;;;;;;;-4.38;100.00;98493.13;5026532;28;20041;-68
2024/01/19 03:48:18;;;;;;;7.30;3.27;;;;;;;-4.75;100.00;98425.97;5040920;28;20496;-66
2024/01/19 03:50:44;;;;;;;3.67;2.88;;;;;;;-4.31;100.00;98488.28;5040907;28;20052;-66
2024/01/19 03:53:10;;;;;;;4.43;4.13;;;;;;;-4.26;100.00;98494.75;5042122;28;20049;-67
2024/01/19 03:55:36;;;;;;;3.63;2.75;;;;;;;-4.27;100.00;98489.69;5042716;28;20412;-67
2024/01/19 03:58:02;;;;;;;4.47;2.90;;;;;;;-4.36;100.00;98475.63;5035105;28;20045;-66
2024/01/19 04:00:28;;;;;;;3.10;2.23;;;;;;;-4.24;100.00;98500.66;5048940;28;20044;-66
2024/01/19 04:02:53;;;;;;;5.47;2.90;;;;;;;-4.35;100.00;98477.28;5044283;28;20045;-68
2024/01/19 04:05:20;;;;;;;6.17;2.33;;;;;;;-4.24;100.00;98505.84;5042525;28;20043;-68
2024/01/19 04:07:46;;;;;;;3.55;2.40;;;;;;;-4.21;100.00;98505.59;5034242;28;20037;-67
2024/01/19 04:10:11;;;;;;;3.67;3.17;;;;;;;-4.29;100.00;98476.81;5038140;28;20060;-68
2024/01/19 04:12:37;;;;;;;2.73;2.53;;;;;;;-4.28;100.00;98480.22;5041725;28;20044;-65
2024/01/19 04:15:03;;;;;;;4.37;3.17;;;;;;;-4.16;100.00;98503.44;5038731;28;20553;-65
2024/01/19 04:17:30;;;;;;;3.85;3.55;;;;;;;-4.13;100.00;98518.78;5036804;28;20084;-67
2024/01/19 04:19:57;;;;;;;4.50;3.00;;;;;;;-4.17;100.00;98506.97;5039720;28;20060;-66
2024/01/19 04:22:22;;;;;;;4.18;3.10;;;;;;;-4.09;100.00;98530.56;5044525;28;20059;-66
2024/01/19 04:24:48;;;;;;;5.33;3.30;;;;;;;-4.09;100.00;98524.56;5035023;28;20045;-66
2024/01/19 04:27:14;;;;;;;2.90;2.70;;;;;;;-4.12;100.00;98535.19;5035174;28;20574;-64
2024/01/19 04:29:39;;;;;;;3.20;3.00;;;;;;;-4.12;100.00;98543.81;5036851;28;20047;-68
2024/01/19 04:32:05;;;;;;;5.50;3.30;;;;;;;-4.11;100.00;98548.06;5041441;28;20037;-66
2024/01/19 04:34:30;;;;;;;4.23;3.00;;;;;;;-4.14;100.00;98544.91;5041912;28;20497;-69
2024/01/19 04:36:56;;;;;;;6.07;2.80;;;;;;;-4.17;100.00;98561.56;5039728;28;20041;-68
2024/01/19 04:39:21;;;;;;;6.67;3.33;;;;;;;-4.18;100.00;98551.28;5025293;28;20515;-67
2024/01/19 04:41:47;;;;;;;5.13;4.63;;;;;;;-4.39;100.00;98535.66;5042983;28;20048;-66
2024/01/19 04:44:12;;;;;;;7.10;3.70;;;;;;;-4.25;100.00;98569.16;5041658;28;20520;-67
2024/01/19 04:46:38;;;;;;;4.67;3.43;;;;;;;-4.33;100.00;98562.94;5042400;28;20041;-66
2024/01/19 04:49:04;;;;;;;4.77;3.70;;;;;;;-4.48;100.00;98537.22;5045013;28;20396;-66
2024/01/19 04:51:30;;;;;;;5.50;3.38;;;;;;;-4.19;100.00;98586.88;5038534;28;20041;-69
2024/01/19 04:53:58;;;;;;;3.90;3.57;;;;;;;-4.33;100.00;98568.97;5038601;28;20041;-68
2024/01/19 04:56:24;;;;;;;11.48;3.95;;;;;;;-4.27;100.00;98571.06;5041478;28;20279;-69
2024/01/19 04:58:49;;;;;;;5.07;3.57;;;;;;;-4.07;100.00;98606.66;5031858;28;20045;-68
2024/01/19 05:01:15;;;;;;;6.00;3.20;;;;;;;-4.03;100.00;98616.84;5038516;28;20053;-71
2024/01/19 05:03:41;;;;;;;6.53;3.43;;;;;;;-4.24;100.00;98596.81;5040051;28;20048;-66
2024/01/19 05:06:06;;;;;;;3.80;3.40;;;;;;;-4.16;100.00;98602.22;5041514;28;20493;-71
2024/01/19 05:08:32;;;;;;;3.10;2.80;;;;;;;-4.25;100.00;98592.56;5042754;28;20052;-73
2024/01/19 05:10:58;;;;;;;6.40;4.40;;;;;;;-4.22;100.00;98604.47;5040441;28;20047;-67
2024/01/19 05:13:23;;;;;;;5.53;3.20;;;;;;;-4.03;100.00;98645.44;5039076;28;20048;-67
2024/01/19 05:15:49;;;;;;;4.97;3.10;;;;;;;-4.45;100.00;98575.13;5044225;28;20043;-68
2024/01/19 05:18:14;;;;;;;5.83;3.10;;;;;;;-4.05;100.00;98640.34;5045522;28;20083;-70
2024/01/19 05:20:40;;;;;;;4.33;3.50;;;;;;;-4.18;100.00;98614.50;5046242;28;20500;-67
2024/01/19 05:23:06;;;;;;;3.63;3.27;;;;;;;-4.10;100.00;98629.47;5034841;28;20041;-65
2024/01/19 05:25:32;;;;;;;5.70;3.03;;;;;;;-4.14;100.00;98625.47;5039145;28;20033;-68
2024/01/19 05:27:58;;;;;;;4.70;3.20;;;;;;;-4.06;100.00;98644.72;5038822;28;20657;-68
2024/01/19 05:30:23;;;;;;;4.13;3.73;;;;;;;-3.90;100.00;98678.13;5040626;28;20903;-69
2024/01/19 05:32:49;;;;;;;4.17;3.27;;;;;;;-4.18;100.00;98630.09;5045634;28;20045;-66
2024/01/19 05:35:15;;;;;;;5.40;3.20;;;;;;;-4.02;100.00;98647.91;5028787;28;20041;-69
2024/01/19 05:37:40;;;;;;;4.03;3.30;;;;;;;-3.95;100.00;98659.47;5041151;28;20037;-68
2024/01/19 05:40:06;;;;;;;5.33;3.70;;;;;;;-4.03;100.00;98653.25;5037368;28;20132;-70
2024/01/19 05:42:32;;;;;;;4.93;3.47;;;;;;;-3.88;100.00;98672.81;5041329;28;20119;-68
2024/01/19 05:44:57;;;;;;;6.10;3.50;;;;;;;-3.87;100.00;98687.47;5049437;28;20045;-68
2024/01/19 05:47:23;;;;;;;3.93;3.13;;;;;;;-3.96;100.00;98670.00;5042171;28;20416;-68
2024/01/19 05:49:49;;;;;;;5.23;3.33;;;;;;;-4.08;100.00;98662.19;5044045;28;20049;-68
2024/01/19 05:52:15;;;;;;;5.97;3.92;;;;;;;-4.08;100.00;98662.19;5039869;28;20091;-72
2024/01/19 05:54:40;;;;;;;5.57;3.60;;;;;;;-3.97;100.00;98684.78;5021003;28;20037;-69
2024/01/19 05:57:06;;;;;;;3.67;3.10;;;;;;;-4.10;100.00;98653.69;5034877;28;20044;-68
2024/01/19 05:59:32;;;;;;;7.17;4.20;;;;;;;-4.08;100.00;98667.41;5043521;28;20037;-69
2024/01/19 06:01:58;;;;;;;8.13;3.88;;;;;;;-3.88;100.00;98696.22;5035657;28;20512;-69
2024/01/19 06:04:24;;;;;;;9.23;4.87;;;;;;;-3.97;100.00;98686.53;5040328;28;20045;-69
2024/01/19 06:06:49;;;;;;;3.60;3.30;;;;;;;-3.91;100.00;98694.69;5043046;28;20041;-68
2024/01/19 06:09:15;;;;;;;9.33;4.40;;;;;;;-4.26;100.00;98645.47;5037864;28;20041;-67
2024/01/19 06:11:40;;;;;;;6.10;3.50;;;;;;;-4.01;100.00;98691.16;5042210;28;20068;-69
2024/01/19 06:14:06;;;;;;;6.67;3.60;;;;;;;-4.00;100.00;98702.41;5046309;28;20133;-66
2024/01/19 06:16:32;;;;;;;5.97;3.80;;;;;;;-3.94;100.00;98722.69;5048567;28;20045;-68
2024/01/19 06:18:59;;;;;;;6.43;5.03;;;;;;;-3.95;100.00;98731.44;5049129;28;20485;-66
2024/01/19 06:21:25;;;;;;;4.82;3.97;;;;;;;-4.54;100.00;98644.22;5042681;28;20583;-67
2024/01/19 06:23:50;;;;;;;5.33;4.37;;;;;;;-4.11;100.00;98717.03;5035224;28;20051;-69
2024/01/19 06:26:16;;;;;;;9.33;5.37;;;;;;;-4.20;100.00;98719.53;5046058;28;20428;-66
2024/01/19 06:28:42;;;;;;;5.83;4.00;;;;;;;-4.43;100.00;98677.97;5045141;28;20433;-69
2024/01/19 06:31:10;;;;;;;5.63;4.50;;;;;;;-4.20;100.00;98719.53;5044123;28;20550;-67
2024/01/19 06:33:37;;;;;;;5.78;4.10;;;;;;;-4.09;100.00;98738.53;5042616;28;20044;-67
2024/01/19 06:36:09;;;;;;;6.18;3.30;;;;;;;-4.08;100.00;98735.00;5045856;28;20478;-67
2024/01/19 06:38:34;;;;;;;3.90;3.50;;;;;;;-4.18;100.00;98717.66;5042209;28;20044;-67
2024/01/19 06:41:00;;;;;;;5.17;4.47;;;;;;;-4.16;100.00;98726.97;5040560;28;20037;-67
2024/01/19 06:43:25;;;;;;;3.83;3.33;;;;;;;-3.98;100.00;98761.13;5039055;28;20041;-66
2024/01/19 06:45:51;;;;;;;6.23;3.87;;;;;;;-4.09;100.00;98748.94;5045965;28;20048;-67
2024/01/19 06:48:16;;;;;;;4.43;4.03;;;;;;;-4.12;100.00;98751.78;5044586;28;20044;-69
2024/01/19 06:50:42;;;;;;;6.17;3.90;;;;;;;-3.95;100.00;98791.25;5040912;28;20119;-68
2024/01/19 06:53:08;;;;;;;5.37;3.87;;;;;;;-4.52;100.00;98722.84;5037531;28;20044;-67
2024/01/19 06:55:33;;;;;;;4.67;3.87;;;;;;;-4.33;100.00;98729.25;5036812;28;20147;-68
2024/01/19 06:57:59;;;;;;;8.07;3.57;;;;;;;-4.05;100.00;98796.31;5039625;28;20175;-68
2024/01/19 07:00:24;;;;;;;4.93;3.50;;;;;;;-4.07;100.00;98783.44;5044751;28;20036;-68
2024/01/19 07:02:50;;;;;;;4.20;3.47;;;;;;;-3.94;100.00;98809.34;5039065;28;20048;-67
2024/01/19 07:05:15;;;;;;;5.63;3.47;;;;;;;-4.10;100.00;98790.66;5046636;28;20045;-66
2024/01/19 07:07:41;;;;;;;6.10;4.07;;;;;;;-4.07;100.00;98806.84;5055323;28;20036;-66
2024/01/19 07:10:06;;;;;;;7.40;3.80;;;;;;;-4.26;100.00;98778.03;5055662;28;20095;-66
2024/01/19 07:12:33;;;;;;;7.80;3.77;;;;;;;-4.11;100.00;98808.03;5059937;28;20038;-70
2024/01/19 07:14:58;;;;;;;3.70;3.17;;;;;;;-4.11;100.00;98812.41;5056413;28;20488;-68
2024/01/19 07:17:24;;;;;;;5.57;3.50;;;;;;;-4.07;100.00;98813.81;5046635;28;20173;-68
2024/01/19 07:19:49;;;;;;;6.10;4.33;;;;;;;-4.14;100.00;98802.25;5051951;28;20571;-66
2024/01/19 07:22:15;;;;;;;6.37;3.77;;;;;;;-4.53;100.00;98754.16;5064601;28;20037;-65
2024/01/19 07:24:41;;;;;;;4.67;3.90;;;;;;;-4.03;100.00;98819.63;5069646;28;20037;-65
2024/01/19 07:27:06;;;;;;;5.07;3.97;;;;;;;-3.96;100.00;98841.59;5069059;28;20033;-69
2024/01/19 07:29:32;;;;;;;5.73;4.07;;;;;;;-4.13;100.00;98815.13;5075597;28;20048;-66
2024/01/19 07:31:57;;;;;;;5.40;4.27;;;;;;;-3.95;100.00;98843.25;5068590;28;20176;-66
2024/01/19 07:34:23;;;;;;;4.33;3.90;;;;;;;-4.00;100.00;98832.41;5076306;28;20045;-70
2024/01/19 07:36:49;;;;;;;7.43;3.53;;;;;;;-3.91;100.00;98845.50;5068037;28;20033;-68
2024/01/19 07:39:15;;;;;;;5.50;3.83;;;;;;;-3.86;100.00;98855.56;5061581;28;20029;-67
2024/01/19 07:41:43;;;;;;;5.83;3.50;;;;;;;-3.87;100.00;98851.28;5063685;28;20041;-70
2024/01/19 07:44:08;;;;;;;4.03;3.17;;;;;;;-3.89;100.00;98858.38;5056995;28;20092;-65
2024/01/19 07:46:35;;;;;;;7.23;3.70;;;;;;;-3.95;100.00;98835.47;5032634;28;20143;-68
2024/01/19 07:49:01;;;;;;;6.28;3.35;;;;;;;-4.03;100.00;98838.66;5042758;28;20075;-69
2024/01/19 07:51:27;;;;;;;5.00;3.13;;;;;;;-3.95;100.00;98838.88;5048222;28;20037;-68
2024/01/19 07:53:54;;;;;;;5.53;3.23;;;;;;;-3.80;100.00;98873.28;5053825;28;20437;-67
2024/01/19 07:56:20;;;;;;;5.35;4.72;;;;;;;-3.92;100.00;98863.81;5049862;28;20060;-69
2024/01/19 07:58:45;;;;;;;4.47;3.60;;;;;;;-3.80;100.00;98889.72;5049843;28;20435;-68
2024/01/19 08:01:11;;;;;;;9.10;3.37;;;;;;;-3.77;100.00;98878.25;5056241;28;20059;-68
2024/01/19 08:03:38;;;;;;;6.50;3.33;;;;;;;-3.84;100.00;98877.06;5051700;28;20439;-65
2024/01/19 08:06:04;;;;;;;6.28;3.60;;;;;;;-4.10;100.00;98846.06;5046893;28;20087;-66
2024/01/19 08:08:30;;;;;;;8.80;4.30;;;;;;;-3.96;100.00;98863.25;5042237;28;20041;-66
2024/01/19 08:10:55;;;;;;;5.20;3.77;;;;;;;-3.90;100.00;98867.13;5041250;28;20284;-66
2024/01/19 08:13:21;;;;;;;5.53;4.57;;;;;;;-3.85;100.00;98896.22;5038392;28;20033;-73
2024/01/19 08:15:47;;;;;;;17.50;6.33;;;;;;;-3.88;100.00;98880.84;5037469;28;20049;-69
2024/01/19 08:18:15;;;;;;;7.03;4.00;;;;;;;-4.06;100.00;98868.28;5039770;28;20057;-66
2024/01/19 08:20:40;;;;;;;6.03;4.60;;;;;;;-3.93;100.00;98906.38;5050533;28;20465;-70
2024/01/19 08:23:06;;;;;;;5.37;4.23;;;;;;;-3.95;100.00;98896.09;5037861;28;20044;-66
2024/01/19 08:25:31;;;;;;;6.67;4.33;;;;;;;-4.06;100.00;98883.88;5050156;28;20131;-67
2024/01/19 08:27:57;;;;;;;5.33;3.57;;;;;;;-3.99;100.00;98914.66;5030336;28;20068;-67
2024/01/19 08:30:23;;;;;;;4.37;3.97;;;;;;;-4.04;100.00;98909.81;5049353;28;20501;-68
2024/01/19 08:32:48;;;;;;;4.00;3.47;;;;;;;-4.27;100.00;98872.53;5050285;28;20075;-66
2024/01/19 08:35:14;;;;;;;6.73;4.13;;;;;;;-4.35;100.00;98874.84;5049596;28;20036;-65
2024/01/19 08:37:40;;;;;;;5.07;4.10;;;;;;;-4.18;100.00;98894.41;5036230;28;20100;-65
2024/01/19 08:40:07;;;;;;;7.57;5.13;;;;;;;-4.36;100.00;98871.44;5044208;28;20115;-65
2024/01/19 08:42:34;;;;;;;7.78;4.20;;;;;;;-3.99;100.00;98914.66;5039078;28;20045;-67
2024/01/19 08:45:00;;;;;;;6.60;4.47;;;;;;;-3.97;100.00;98912.75;5042363;28;20140;-65
2024/01/19 08:47:30;;;;;;;8.48;5.03;;;;;;;-3.88;100.00;98912.06;5038660;28;20430;-66
2024/01/19 08:49:55;;;;;;;6.95;5.15;;;;;;;-4.00;100.00;98881.78;5045493;28;20033;-67
2024/01/19 08:52:21;;;;;;;8.70;5.27;;;;;;;-3.90;100.00;98895.75;5049602;28;20048;-66
2024/01/19 08:54:46;;;;;;;6.63;5.43;;;;;;;-3.84;100.00;98898.69;5052187;28;20115;-66
2024/01/19 08:57:12;;;;;;;5.80;4.83;;;;;;;-3.81;100.00;98892.44;5046868;28;20106;-66
2024/01/19 08:59:38;;;;;;;7.03;5.67;;;;;;;-3.69;100.00;98911.50;5051252;28;20068;-67
2024/01/19 09:02:04;;;;;;;6.63;4.77;;;;;;;-3.68;100.00;98913.97;5051117;28;20049;-66
2024/01/19 09:04:33;;;;;;;6.20;5.60;;;;;;;-3.66;100.00;98912.06;5047554;28;20304;-66
2024/01/19 09:06:58;;;;;;;;;;;;;;;-3.57;100.00;98908.75;5052694;28;20068;-66
2024/01/19 09:09:24;;;;;;;6.93;4.27;;;;;;;-3.55;100.00;98912.06;5054572;28;19921;-68
2024/01/19 09:11:49;;;;;;;5.30;4.80;;;;;;;-3.64;100.00;98897.19;5055262;28;20040;-68
2024/01/19 09:14:15;;;;;;;5.73;4.07;;;;;;;-3.60;100.00;98906.41;5048194;28;20129;-71
2024/01/19 09:16:44;;;;;;;5.20;4.20;;;;;;;-3.58;100.00;98909.69;5045879;28;20065;-68
2024/01/19 09:19:10;;;;;;;6.15;3.78;;;;;;;-3.60;100.00;98915.97;5077337;28;20135;-67
2024/01/19 09:21:36;;;;;;;5.75;3.80;;;;;;;-3.63;100.00;98906.63;5041271;28;20131;-67
2024/01/19 09:24:01;;;;;;;5.43;4.03;;;;;;;-3.67;100.00;98894.81;5048264;28;20149;-68
2024/01/19 09:26:27;;;;;;;4.17;3.70;;;;;;;-3.68;100.00;98895.75;5035437;28;20033;-71
2024/01/19 09:28:56;;;;;;;7.82;4.70;;;;;;;-3.53;100.00;98907.56;5052030;28;20044;-74
2024/01/19 09:31:25;;;;;;;8.27;4.87;;;;;;;-3.48;100.00;98920.22;5045921;28;20041;-69
2024/01/19 09:33:50;;;;;;;;;;;;;;;-3.45;100.00;98926.03;5049228;28;20041;-69
2024/01/19 09:36:16;;;;;;;6.00;3.70;;;;;;;-3.45;100.00;98926.03;5039898;28;19975;-71
2024/01/19 09:38:42;;;;;;;5.00;3.85;;;;;;;-3.57;100.00;98895.75;5042791;28;20043;-70
2024/01/19 09:41:36;;;;;;;12.23;4.60;;;;;;;-3.36;100.00;98919.28;5043840;28;20040;-69
2024/01/19 09:44:07;;;;;;;4.47;3.28;;;;;;;-3.34;100.00;98913.94;5047668;28;20103;-70
2024/01/19 09:46:42;;;;;;;4.80;3.90;;;;;;;-3.39;100.00;98897.88;5042892;28;20029;-68
2024/01/19 09:49:27;;;;;;;4.70;3.78;;;;;;;-3.34;100.00;98916.56;5039930;28;20037;-70
2024/01/19 09:51:59;;;;;;;8.23;3.22;;;;;;;-3.30;100.00;98915.38;5036401;28;20071;-71
2024/01/19 09:54:31;;;;;;;5.10;3.15;;;;;;;-3.46;100.00;98898.34;5039196;28;20508;-72
2024/01/19 09:56:59;;;;;;;4.68;3.42;;;;;;;-3.33;100.00;98923.41;5046494;28;20037;-68
2024/01/19 09:59:28;;;;;;;8.07;3.72;;;;;;;-3.31;100.00;98916.31;5044890;28;20060;-68
2024/01/19 10:01:55;;;;;;;4.97;3.80;;;;;;;-3.38;100.00;98887.34;5047863;28;20046;-70
2024/01/19 10:04:22;;;;;;;4.22;3.15;;;;;;;-3.20;100.00;98918.91;5049691;28;20049;-69
2024/01/19 10:06:49;;;;;;;5.20;4.25;;;;;;;-3.34;100.00;98886.16;5062009;28;20040;-69
2024/01/19 10:09:17;;;;;;;4.03;3.42;;;;;;;-3.30;100.00;98910.16;5054368;28;20041;-70
2024/01/19 10:11:54;;;;;;;4.13;3.65;;;;;;;-3.39;100.00;98903.09;5051950;28;20427;-67
2024/01/19 10:14:23;;;;;;;5.75;3.78;;;;;;;-3.32;100.00;98905.06;5048127;28;20049;-71
2024/01/19 10:16:50;;;;;;;3.95;3.17;;;;;;;-3.26;100.00;98906.38;5050060;28;20053;-71
2024/01/19 10:19:20;;;;;;;5.68;3.80;;;;;;;-3.44;100.00;98882.63;5034743;28;20118;-72
2024/01/19 10:21:46;;;;;;;3.55;3.10;;;;;;;-3.48;100.00;98878.59;5032306;28;20187;-74
2024/01/19 10:24:19;;;;;;;5.13;3.73;;;;;;;-3.29;100.00;98899.63;5041575;28;20135;-71
2024/01/19 10:26:55;;;;;;;4.07;3.40;;;;;;;-3.53;100.00;98870.31;5034708;28;20045;-73
2024/01/19 10:29:22;;;;;;;7.07;3.33;;;;;;;-3.82;100.00;98820.56;5044537;28;20523;-71
2024/01/19 10:31:50;;;;;;;4.70;3.50;;;;;;;-3.33;100.00;98910.41;5041681;28;20037;-70
2024/01/19 10:34:27;;;;;;;4.63;4.07;;;;;;;-3.24;100.00;98918.31;5045176;28;20509;-72
2024/01/19 10:36:52;;;;;;;6.90;3.80;;;;;;;-3.19;100.00;98920.53;5038622;28;20048;-72
2024/01/19 10:39:23;;;;;;;4.97;2.80;;;;;;;-3.11;100.00;98923.41;5035895;28;20052;-72
2024/01/19 10:41:50;;;;;;;4.95;3.30;;;;;;;-3.29;100.00;98904.84;5046912;28;20037;-70
2024/01/19 10:44:19;;;;;;;3.53;3.22;;;;;;;-3.34;100.00;98895.72;5044076;28;20381;-70
2024/01/19 10:46:45;;;;;;;5.28;3.45;;;;;;;-3.17;100.00;98918.69;5041948;28;20033;-71
2024/01/19 10:49:13;;;;;;;5.07;3.65;;;;;;;-3.14;100.00;98936.66;5046663;28;20052;-69
2024/01/19 10:51:43;;;;;;;5.95;4.30;;;;;;;-3.27;100.00;98938.56;5033992;28;20045;-68
2024/01/19 10:54:16;;;;;;;4.85;3.53;;;;;;;-3.28;100.00;98936.91;5041068;28;20080;-69
2024/01/19 10:56:44;;;;;;;5.10;3.10;;;;;;;-3.49;100.00;98905.56;5040625;28;20045;-67
2024/01/19 10:59:12;;;;;;;4.25;3.53;;;;;;;-3.28;100.00;98936.91;5050435;28;20056;-67
2024/01/19 11:01:38;;;;;;;4.15;3.20;;;;;;;-3.24;100.00;98944.34;5046526;28;20124;-70
2024/01/19 11:04:09;;;;;;;4.35;2.85;;;;;;;-4.13;100.00;98799.53;5044957;28;20332;-70
2024/01/19 11:06:38;;;;;;;3.85;2.80;;;;;;;-3.25;100.00;98949.66;5033980;28;20531;-69
2024/01/19 11:09:06;;;;;;;3.83;3.30;;;;;;;-3.26;100.00;98946.25;5065192;28;20393;-68
2024/01/19 11:11:53;;;;;;;4.95;3.58;;;;;;;-3.18;100.00;98956.03;5036958;28;20144;-66
2024/01/19 11:14:22;;;;;;;3.95;3.50;;;;;;;-3.29;100.00;98941.28;5023833;28;20040;-69
2024/01/19 11:16:53;;;;;;;3.30;3.00;;;;;;;-3.21;100.00;98951.09;5038032;28;20084;-71
2024/01/19 11:19:20;;;;;;;3.28;2.47;;;;;;;-3.26;100.00;98955.81;5040716;28;20095;-68
2024/01/19 11:21:46;;;;;;;4.85;3.28;;;;;;;-3.31;100.00;98939.75;5041892;28;20464;-70